Time;durP1;ratioP1;P1;durP2;ratioP2;P2;SDS_P1;SDS_P2;PMS_P1;PMS_P2;Temp;Humidity;BMP_temperature;BMP_pressure;BME280_temperature;BME280_humidity;BME280_pressure;Samples;Min_cycle;Max_cycle;Signal;HPM_P1;HPM_P2
2024/03/14 00:00:22;;;;;;;3.40;1.88;;;;;;;7.94;100.00;99527.00;5066362;28;20055;-61
2024/03/14 00:02:52;;;;;;;5.95;2.15;;;;;;;7.91;100.00;99523.00;5063692;28;20060;-61
2024/03/14 00:05:20;;;;;;;4.30;1.38;;;;;;;7.89;100.00;99519.78;5066415;28;20585;-61
2024/03/14 00:07:47;;;;;;;9.20;2.17;;;;;;;7.86;100.00;99514.19;5065534;28;20545;-61
2024/03/14 00:10:17;;;;;;;3.33;2.08;;;;;;;7.82;100.00;99516.06;5061396;28;20135;-61
2024/03/14 00:12:46;;;;;;;3.72;1.85;;;;;;;7.78;100.00;99504.94;5043367;28;21286;-62
2024/03/14 00:15:15;;;;;;;4.03;2.10;;;;;;;7.76;100.00;99514.72;5058886;28;20139;-61
2024/03/14 00:17:46;;;;;;;7.03;2.05;;;;;;;7.74;100.00;99506.81;5061506;28;20041;-62
2024/03/14 00:20:15;;;;;;;9.77;2.75;;;;;;;7.70;100.00;99500.44;5040317;28;20057;-62
2024/03/14 00:22:42;;;;;;;6.85;2.30;;;;;;;7.65;100.00;99495.16;5062271;28;20055;-62
2024/03/14 00:25:10;;;;;;;4.30;2.63;;;;;;;7.67;100.00;99486.56;5050440;28;20052;-61
2024/03/14 00:27:43;;;;;;;9.10;2.55;;;;;;;7.66;100.00;99488.50;5070164;28;20533;-61
2024/03/14 00:30:12;;;;;;;4.45;1.75;;;;;;;7.66;100.00;99493.22;5062095;28;20426;-61
2024/03/14 00:32:40;;;;;;;6.82;2.22;;;;;;;7.62;100.00;99479.38;5059328;28;20066;-61
2024/03/14 00:35:08;;;;;;;3.53;1.75;;;;;;;7.59;100.00;99471.81;5046123;28;20041;-61
2024/03/14 00:37:36;;;;;;;6.10;1.70;;;;;;;7.58;100.00;99469.41;5061847;28;20041;-61
2024/03/14 00:40:08;;;;;;;3.08;1.67;;;;;;;7.57;100.00;99468.59;5042214;28;20051;-62
2024/03/14 00:42:42;;;;;;;5.82;2.05;;;;;;;7.53;100.00;99455.91;5047986;28;20052;-62
2024/03/14 00:45:09;;;;;;;5.70;2.28;;;;;;;7.53;100.00;99456.72;5057921;28;20044;-62
2024/03/14 00:47:38;;;;;;;3.67;1.77;;;;;;;7.51;100.00;99453.53;5056143;28;20041;-62
2024/03/14 00:50:08;;;;;;;3.10;2.00;;;;;;;7.53;100.00;99450.41;5039449;28;20041;-62
2024/03/14 00:52:36;;;;;;;4.65;2.65;;;;;;;7.51;100.00;99453.53;5042574;28;20760;-62
2024/03/14 00:55:08;;;;;;;3.25;1.85;;;;;;;7.50;100.00;99440.91;5052068;28;20552;-62
2024/03/14 00:57:36;;;;;;;4.30;2.40;;;;;;;7.51;100.00;99447.22;5068811;28;20051;-61
2024/03/14 01:00:14;;;;;;;5.50;2.03;;;;;;;7.50;100.00;99440.91;5069565;28;20055;-61
2024/03/14 01:02:41;;;;;;;4.13;1.65;;;;;;;7.50;100.00;99431.84;5050755;28;20842;-62
2024/03/14 01:05:11;;;;;;;2.70;1.83;;;;;;;7.48;100.00;99426.69;5062698;28;20059;-62
2024/03/14 01:07:39;;;;;;;3.97;1.98;;;;;;;7.48;100.00;99426.69;5061988;28;20055;-62
2024/03/14 01:10:10;;;;;;;4.05;1.77;;;;;;;7.45;100.00;99418.34;5069353;28;20048;-61
2024/03/14 01:12:38;;;;;;;3.17;2.03;;;;;;;7.40;100.00;99415.84;5068753;28;20126;-61
2024/03/14 01:15:06;;;;;;;4.45;1.85;;;;;;;7.34;100.00;99416.13;5047885;28;20499;-61
2024/03/14 01:17:34;;;;;;;4.35;2.17;;;;;;;7.31;100.00;99407.78;5061660;28;20029;-61
2024/03/14 01:20:10;;;;;;;7.93;3.42;;;;;;;7.31;100.00;99410.53;5067450;28;20048;-60
2024/03/14 01:22:39;;;;;;;4.32;2.70;;;;;;;7.32;100.00;99410.19;5051345;28;20059;-60
2024/03/14 01:25:06;;;;;;;4.38;2.58;;;;;;;7.35;100.00;99400.41;5050834;28;20059;-61
2024/03/14 01:27:34;;;;;;;7.72;3.08;;;;;;;7.35;100.00;99394.91;5059548;28;20039;-61
2024/03/14 01:30:01;;;;;;;6.95;2.60;;;;;;;7.36;100.00;99391.78;5065675;28;20056;-60
2024/03/14 01:32:28;;;;;;;9.35;3.30;;;;;;;7.35;100.00;99394.91;5048871;28;20047;-60
2024/03/14 01:34:56;;;;;;;4.75;3.00;;;;;;;7.35;100.00;99397.66;5066071;28;20041;-61
2024/03/14 01:37:23;;;;;;;5.13;3.78;;;;;;;7.36;100.00;99391.78;5068440;28;20429;-61
2024/03/14 01:39:50;;;;;;;5.18;2.83;;;;;;;7.38;100.00;99377.69;5046258;28;20414;-61
2024/03/14 01:42:18;;;;;;;7.22;3.53;;;;;;;7.40;100.00;99386.38;5069047;28;20047;-60
2024/03/14 01:44:59;;;;;;;3.85;2.58;;;;;;;7.43;100.00;99385.66;5068388;28;20041;-61
2024/03/14 01:47:27;;;;;;;6.18;3.30;;;;;;;7.44;100.00;99378.97;5063850;28;20048;-61
2024/03/14 01:49:55;;;;;;;6.80;3.25;;;;;;;7.46;100.00;99379.44;5050080;28;20044;-62
2024/03/14 01:52:25;;;;;;;9.35;3.45;;;;;;;7.49;100.00;99375.97;5065300;28;20041;-61
2024/03/14 01:54:53;;;;;;;8.80;3.95;;;;;;;7.50;100.00;99361.03;5057404;28;20045;-60
2024/03/14 01:57:20;;;;;;;4.15;2.97;;;;;;;7.52;100.00;99350.44;5054582;28;20060;-62
2024/03/14 01:59:49;;;;;;;7.75;3.83;;;;;;;7.56;100.00;99354.09;5067218;28;20056;-61
2024/03/14 02:02:18;;;;;;;7.53;4.20;;;;;;;7.58;100.00;99349.03;5035975;28;20060;-62
2024/03/14 02:04:52;;;;;;;6.43;3.60;;;;;;;7.60;100.00;99349.47;5048644;28;20057;-62
2024/03/14 02:07:26;;;;;;;7.55;3.47;;;;;;;7.62;100.00;99349.91;5068473;28;20387;-62
2024/03/14 02:09:53;;;;;;;8.65;3.75;;;;;;;7.66;100.00;99344.47;5038192;28;20052;-61
2024/03/14 02:12:21;;;;;;;7.05;4.07;;;;;;;7.69;100.00;99332.75;5042923;28;20044;-61
2024/03/14 02:14:48;;;;;;;9.48;4.25;;;;;;;7.71;100.00;99333.97;5046116;28;20052;-62
2024/03/14 02:17:16;;;;;;;7.05;4.05;;;;;;;7.71;100.00;99325.72;5041110;28;20158;-62
2024/03/14 02:19:43;;;;;;;8.57;4.75;;;;;;;7.73;100.00;99323.38;5064337;28;20041;-62
2024/03/14 02:22:20;;;;;;;9.18;3.70;;;;;;;7.74;100.00;99308.47;5046085;28;20418;-62
2024/03/14 02:24:51;;;;;;;5.68;4.18;;;;;;;7.75;100.00;99310.06;5066548;28;20048;-62
2024/03/14 02:27:22;;;;;;;8.50;3.95;;;;;;;7.77;100.00;99305.00;5065859;28;20514;-62
2024/03/14 02:29:50;;;;;;;7.57;3.47;;;;;;;7.81;100.00;99294.84;5066500;28;20047;-62
2024/03/14 02:32:18;;;;;;;6.85;3.70;;;;;;;7.85;100.00;99294.91;5064770;28;20048;-62
2024/03/14 02:34:45;;;;;;;7.53;3.42;;;;;;;7.88;100.00;99289.50;5062648;28;20498;-61
2024/03/14 02:37:12;;;;;;;4.40;2.95;;;;;;;7.93;100.00;99288.38;5063518;28;20067;-61
2024/03/14 02:39:40;;;;;;;5.40;3.13;;;;;;;7.95;100.00;99281.34;5066705;28;20057;-62
2024/03/14 02:42:10;;;;;;;5.93;2.50;;;;;;;7.97;100.00;99290.06;5063004;28;20052;-62
2024/03/14 02:44:37;;;;;;;3.95;3.10;;;;;;;7.96;100.00;99284.91;5045980;28;20053;-61
2024/03/14 02:47:07;;;;;;;5.95;3.20;;;;;;;7.96;100.00;99274.69;5065798;28;20052;-61
2024/03/14 02:49:35;;;;;;;5.90;3.38;;;;;;;7.99;100.00;99260.16;5057892;28;20407;-61
2024/03/14 02:52:03;;;;;;;8.30;3.20;;;;;;;7.99;100.00;99259.38;5033623;28;20048;-61
2024/03/14 02:54:30;;;;;;;8.32;2.92;;;;;;;7.98;100.00;99258.59;5048428;28;20075;-61
2024/03/14 02:56:58;;;;;;;6.90;3.30;;;;;;;7.99;100.00;99257.41;5049606;28;20055;-61
2024/03/14 02:59:25;;;;;;;7.45;3.58;;;;;;;8.02;100.00;99247.63;5047460;28;20489;-61
2024/03/14 03:01:53;;;;;;;15.15;5.10;;;;;;;8.04;100.00;99233.47;5153085;22;20048;-59
2024/03/14 03:04:21;;;;;;;11.13;4.82;;;;;;;8.04;100.00;99236.25;5069278;28;20043;-59
2024/03/14 03:06:52;;;;;;;10.48;5.60;;;;;;;8.07;100.00;99227.25;5087453;28;20052;-58
2024/03/14 03:09:21;;;;;;;13.32;5.82;;;;;;;8.09;100.00;99222.97;5084264;28;20048;-57
2024/03/14 03:11:49;;;;;;;15.85;6.05;;;;;;;8.11;100.00;99222.59;5086314;28;20044;-58
2024/03/14 03:14:16;;;;;;;13.15;5.68;;;;;;;8.13;100.00;99220.28;5086774;28;20040;-59
2024/03/14 03:16:44;;;;;;;9.52;5.38;;;;;;;8.14;100.00;99213.59;5087062;28;20051;-59
2024/03/14 03:19:13;;;;;;;14.60;6.22;;;;;;;8.16;100.00;99220.31;5086640;28;20370;-59
2024/03/14 03:21:40;;;;;;;15.10;6.18;;;;;;;8.18;100.00;99217.22;5085347;28;20408;-61
2024/03/14 03:24:08;;;;;;;14.43;7.95;;;;;;;8.19;100.00;99202.25;5086133;28;20067;-59
2024/03/14 03:26:36;;;;;;;15.10;5.75;;;;;;;8.20;100.00;99198.34;5086725;28;20048;-58
2024/03/14 03:29:07;;;;;;;12.23;5.68;;;;;;;8.23;100.00;99192.09;5086521;28;20040;-57
2024/03/14 03:31:34;;;;;;;14.48;5.90;;;;;;;8.24;100.00;99191.72;5085841;28;20040;-58
2024/03/14 03:34:04;;;;;;;19.00;7.80;;;;;;;8.25;100.00;99178.75;5087364;28;20036;-58
2024/03/14 03:36:31;;;;;;;18.42;7.10;;;;;;;8.25;100.00;99168.50;5086062;28;20485;-58
2024/03/14 03:39:00;;;;;;;16.63;6.75;;;;;;;8.27;100.00;99176.44;5085347;28;20051;-54
2024/03/14 03:41:29;;;;;;;16.83;6.93;;;;;;;8.27;100.00;99165.41;5085493;28;20059;-57
2024/03/14 03:43:57;;;;;;;15.32;6.60;;;;;;;8.30;100.00;99159.97;5085448;28;20048;-58
2024/03/14 03:46:25;;;;;;;17.55;6.68;;;;;;;8.32;100.00;99162.34;5084511;28;20048;-57
2024/03/14 03:48:52;;;;;;;20.67;6.75;;;;;;;8.34;100.00;99154.53;5085159;28;20544;-57
2024/03/14 03:51:20;;;;;;;17.48;7.57;;;;;;;8.37;100.00;99154.56;5079026;28;20036;-57
2024/03/14 03:53:47;;;;;;;13.80;6.28;;;;;;;8.40;100.00;99147.50;5085472;28;20055;-56
2024/03/14 03:56:14;;;;;;;18.55;8.23;;;;;;;8.42;100.00;99145.16;5086126;28;20051;-55
2024/03/14 03:58:42;;;;;;;14.00;6.50;;;;;;;8.43;100.00;99136.53;5090832;28;20055;-57
2024/03/14 04:01:13;;;;;;;20.05;6.95;;;;;;;8.46;100.00;99132.25;5089805;28;20045;-54
2024/03/14 04:03:41;;;;;;;17.77;6.90;;;;;;;8.49;100.00;99134.28;5090131;28;20064;-57
2024/03/14 04:06:15;;;;;;;14.90;5.47;;;;;;;8.51;100.00;99129.97;5089867;28;20036;-57
2024/03/14 04:08:46;;;;;;;11.30;4.88;;;;;;;8.54;100.00;99125.69;5085230;28;20059;-53
2024/03/14 04:11:15;;;;;;;14.52;4.97;;;;;;;8.57;100.00;99116.66;5089359;28;20047;-55
2024/03/14 04:13:44;;;;;;;8.40;4.30;;;;;;;8.60;100.00;99109.59;5089356;28;20056;-57
2024/03/14 04:16:15;;;;;;;9.52;4.68;;;;;;;8.63;100.00;99112.41;5080190;28;20051;-55
2024/03/14 04:18:44;;;;;;;17.95;6.15;;;;;;;8.68;100.00;99116.81;5085730;28;20052;-56
2024/03/14 04:21:15;;;;;;;15.50;4.63;;;;;;;8.70;100.00;99112.53;5089887;28;20040;-57
2024/03/14 04:23:43;;;;;;;12.48;4.32;;;;;;;8.72;100.00;99101.91;5088154;28;20056;-56
2024/03/14 04:26:15;;;;;;;12.88;4.70;;;;;;;8.74;100.00;99102.31;5080594;28;20059;-55
2024/03/14 04:28:48;;;;;;;10.60;4.30;;;;;;;8.77;100.00;99089.75;5084913;28;20059;-55
2024/03/14 04:31:17;;;;;;;8.10;4.32;;;;;;;8.78;100.00;99089.38;5082435;28;20040;-55
2024/03/14 04:33:45;;;;;;;8.40;3.65;;;;;;;8.80;100.00;99087.03;5088649;28;20496;-56
2024/03/14 04:36:12;;;;;;;8.93;2.88;;;;;;;8.84;100.00;99087.09;5090056;28;20062;-56
2024/03/14 04:38:40;;;;;;;10.32;2.20;;;;;;;8.85;100.00;99075.66;5089349;28;20062;-55
2024/03/14 04:41:14;;;;;;;10.75;3.05;;;;;;;8.90;100.00;99082.81;5089602;28;20079;-56
2024/03/14 04:43:43;;;;;;;7.13;2.30;;;;;;;8.92;100.00;99064.72;5089800;28;20501;-56
2024/03/14 04:46:10;;;;;;;8.77;2.40;;;;;;;8.94;100.00;99078.97;5089562;28;20083;-58
2024/03/14 04:48:38;;;;;;;7.90;2.40;;;;;;;8.97;100.00;99063.63;5089276;28;20052;-60
2024/03/14 04:51:06;;;;;;;2.40;0.80;;;;;;;9.00;100.00;99065.63;5088311;28;20052;-56
2024/03/14 04:53:36;;;;;;;6.85;0.93;;;;;;;9.03;100.00;99068.41;5083000;28;20048;-57
2024/03/14 04:56:04;;;;;;;1.20;0.65;;;;;;;9.07;100.00;99058.22;5075620;28;20053;-58
2024/03/14 04:58:31;;;;;;;0.55;0.30;;;;;;;9.12;100.00;99065.38;5088195;28;20048;-55
2024/03/14 05:00:59;;;;;;;1.52;0.50;;;;;;;9.18;100.00;99050.88;5088911;28;20394;-59
2024/03/14 05:03:28;;;;;;;1.60;0.38;;;;;;;9.26;100.00;99056.47;5089650;28;20052;-59
2024/03/14 05:05:56;;;;;;;1.98;0.43;;;;;;;9.31;100.00;99050.59;5089790;28;20047;-56
2024/03/14 05:08:25;;;;;;;2.33;0.63;;;;;;;9.33;100.00;99048.25;5088624;28;20481;-57
2024/03/14 05:10:52;;;;;;;1.30;0.57;;;;;;;9.36;100.00;99039.22;5088263;28;20672;-55
2024/03/14 05:13:19;;;;;;;0.40;0.40;;;;;;;9.41;100.00;99036.91;5089222;28;20056;-57
2024/03/14 05:15:49;;;;;;;0.82;0.40;;;;;;;9.48;100.00;99030.63;5075227;28;20051;-58
2024/03/14 05:18:16;;;;;;;3.97;0.90;;;;;;;9.53;100.00;99033.09;5088572;28;20040;-55
2024/03/14 05:20:43;;;;;;;0.20;0.20;;;;;;;9.56;100.00;99027.56;5089129;28;20084;-56
2024/03/14 05:23:11;;;;;;;2.97;0.40;;;;;;;9.62;100.00;99036.31;5089816;28;20036;-60
2024/03/14 05:25:38;;;;;;;0.65;0.40;;;;;;;9.69;100.00;99041.91;5087927;28;20055;-59
2024/03/14 05:28:06;;;;;;;0.28;0.17;;;;;;;9.73;100.00;99020.63;5084129;28;20060;-59
2024/03/14 05:30:34;;;;;;;4.97;0.43;;;;;;;9.77;100.00;99032.50;5088304;28;20052;-60
2024/03/14 05:33:01;;;;;;;0.95;0.30;;;;;;;9.79;100.00;99033.72;5089556;28;20067;-58
2024/03/14 05:35:29;;;;;;;1.13;0.43;;;;;;;9.83;100.00;99044.81;5080368;28;20463;-59
2024/03/14 05:37:57;;;;;;;0.35;0.35;;;;;;;9.84;100.00;99038.13;5088321;28;20509;-60
2024/03/14 05:40:27;;;;;;;1.10;0.35;;;;;;;9.85;100.00;99036.91;5088979;28;20236;-59
2024/03/14 05:42:55;;;;;;;1.75;0.30;;;;;;;9.85;100.00;99036.91;5088574;28;20048;-59
2024/03/14 05:45:23;;;;;;;0.40;0.40;;;;;;;9.87;100.00;99034.59;5088461;28;20424;-59
2024/03/14 05:48:05;;;;;;;0.52;0.20;;;;;;;9.87;100.00;99034.59;5088051;28;20047;-58
2024/03/14 05:50:32;;;;;;;2.83;0.55;;;;;;;9.88;100.00;99036.16;5088461;28;20047;-58
2024/03/14 05:53:01;;;;;;;1.35;0.30;;;;;;;9.88;100.00;99027.88;5079268;28;20126;-57
2024/03/14 05:55:29;;;;;;;0.93;0.30;;;;;;;9.89;100.00;99035.00;5088462;28;20413;-57
2024/03/14 05:57:57;;;;;;;3.78;0.40;;;;;;;9.91;100.00;99035.41;5080692;28;20063;-55
2024/03/14 06:00:25;;;;;;;0.82;0.50;;;;;;;9.92;100.00;99028.72;5080048;28;20190;-58
2024/03/14 06:02:52;;;;;;;0.50;0.50;;;;;;;9.93;100.00;99041.34;5086886;28;20080;-57
2024/03/14 06:05:20;;;;;;;1.98;0.60;;;;;;;9.97;100.00;99035.84;5087944;28;20040;-56
2024/03/14 06:07:48;;;;;;;2.10;0.60;;;;;;;9.98;100.00;99037.44;5088043;28;20093;-57
2024/03/14 06:10:15;;;;;;;1.02;0.60;;;;;;;9.98;100.00;99034.69;5085715;28;20044;-57
2024/03/14 06:12:45;;;;;;;4.53;0.65;;;;;;;9.99;100.00;99045.34;5086888;28;20048;-56
2024/03/14 06:15:13;;;;;;;4.15;0.80;;;;;;;9.98;100.00;99040.97;5085841;28;20044;-57
2024/03/14 06:17:41;;;;;;;0.85;0.40;;;;;;;9.98;100.00;99038.22;5069272;28;20055;-60
2024/03/14 06:20:12;;;;;;;3.45;0.63;;;;;;;9.97;100.00;99033.88;5085532;28;20048;-58
2024/03/14 06:22:44;;;;;;;2.10;0.70;;;;;;;9.94;100.00;99031.88;5075932;28;20064;-55
2024/03/14 06:25:11;;;;;;;1.92;0.73;;;;;;;9.93;100.00;99035.81;5085678;28;20508;-55
2024/03/14 06:27:41;;;;;;;6.65;0.73;;;;;;;9.92;100.00;99025.94;5086335;28;20566;-57
2024/03/14 06:30:09;;;;;;;2.72;0.98;;;;;;;9.93;100.00;99023.97;5086690;28;20040;-56
2024/03/14 06:32:41;;;;;;;5.57;0.97;;;;;;;9.90;100.00;99031.03;5085993;28;20044;-55
2024/03/14 06:35:09;;;;;;;2.42;0.93;;;;;;;9.91;100.00;99021.56;5087767;28;20048;-58
2024/03/14 06:37:36;;;;;;;2.72;0.77;;;;;;;9.89;100.00;99015.66;5087864;28;20036;-57
2024/03/14 06:40:06;;;;;;;2.72;0.90;;;;;;;9.91;100.00;99020.78;5086637;28;20247;-58
2024/03/14 06:42:34;;;;;;;5.47;1.00;;;;;;;9.90;100.00;99024.75;5086723;28;20052;-58
2024/03/14 06:45:04;;;;;;;2.55;0.77;;;;;;;9.88;100.00;99011.28;5085283;28;20055;-58
2024/03/14 06:47:35;;;;;;;7.07;1.40;;;;;;;9.88;100.00;99004.97;5080333;28;20079;-59
2024/03/14 06:50:03;;;;;;;5.25;1.40;;;;;;;9.88;100.00;99011.28;5085976;28;20040;-58
2024/03/14 06:52:31;;;;;;;3.72;0.93;;;;;;;9.88;100.00;99016.81;5086916;28;20051;-58
2024/03/14 06:54:58;;;;;;;5.10;1.67;;;;;;;9.87;100.00;99004.19;5074743;28;20040;-58
2024/03/14 06:57:25;;;;;;;4.07;1.30;;;;;;;9.87;100.00;99004.19;5086693;28;20044;-59
2024/03/14 06:59:53;;;;;;;7.05;2.42;;;;;;;9.88;100.00;99007.72;5087728;28;20075;-58
2024/03/14 07:02:21;;;;;;;3.33;0.60;;;;;;;9.89;100.00;99017.59;5086520;28;20868;-58
2024/03/14 07:04:48;;;;;;;1.17;0.70;;;;;;;9.89;100.00;99012.09;5086389;28;20052;-59
2024/03/14 07:07:16;;;;;;;4.35;1.10;;;;;;;9.90;100.00;99025.50;5086271;28;20048;-59
2024/03/14 07:09:45;;;;;;;1.98;0.47;;;;;;;9.90;100.00;99011.69;5087006;28;20536;-59
2024/03/14 07:12:15;;;;;;;2.05;1.17;;;;;;;9.91;100.00;99015.25;5086396;28;20043;-59
2024/03/14 07:14:42;;;;;;;2.25;1.00;;;;;;;9.91;100.00;99005.00;5087138;28;20118;-58
2024/03/14 07:17:09;;;;;;;3.47;0.50;;;;;;;9.95;100.00;99027.94;5085648;28;20067;-57
2024/03/14 07:19:37;;;;;;;5.97;0.82;;;;;;;9.94;100.00;99012.53;5086933;28;20497;-60
2024/03/14 07:22:05;;;;;;;3.45;0.77;;;;;;;9.96;100.00;99035.03;5085946;28;20044;-58
2024/03/14 07:24:33;;;;;;;3.80;1.50;;;;;;;9.96;100.00;99023.97;5086769;28;20063;-60
2024/03/14 07:27:03;;;;;;;5.50;1.00;;;;;;;9.98;100.00;99016.09;5086033;28;20113;-59
2024/03/14 07:29:31;;;;;;;4.22;1.10;;;;;;;9.98;100.00;99015.31;5087052;28;20037;-59
2024/03/14 07:31:59;;;;;;;2.67;0.82;;;;;;;10.00;100.00;99007.44;5088277;28;20044;-58
2024/03/14 07:34:26;;;;;;;4.65;1.17;;;;;;;10.01;100.00;99009.81;5088675;28;20398;-57
2024/03/14 07:36:53;;;;;;;6.43;1.10;;;;;;;10.02;100.00;98994.81;5087425;28;20049;-59
2024/03/14 07:39:26;;;;;;;3.90;1.35;;;;;;;10.05;100.00;99005.13;5091470;28;20408;-59
2024/03/14 07:41:53;;;;;;;4.50;1.15;;;;;;;10.10;100.00;98995.66;5091993;28;20047;-59
2024/03/14 07:44:20;;;;;;;6.45;1.23;;;;;;;10.12;100.00;98993.28;5091527;28;20545;-59
2024/03/14 07:47:00;;;;;;;12.23;1.65;;;;;;;10.13;100.00;98994.91;5091694;28;20040;-59
2024/03/14 07:49:31;;;;;;;6.00;1.58;;;;;;;10.14;100.00;99005.59;5091574;28;20037;-58
2024/03/14 07:51:58;;;;;;;4.65;1.02;;;;;;;10.14;100.00;98994.53;5091400;28;20048;-59
2024/03/14 07:54:27;;;;;;;6.05;1.70;;;;;;;10.14;100.00;99000.06;5090888;28;20056;-59
2024/03/14 07:56:54;;;;;;;6.72;1.45;;;;;;;10.14;100.00;99000.06;5084279;28;20532;-58
2024/03/14 07:59:23;;;;;;;3.83;1.05;;;;;;;10.14;100.00;98991.75;5090340;28;20043;-60
2024/03/14 08:01:53;;;;;;;4.25;1.23;;;;;;;10.15;100.00;98978.72;5089962;28;20063;-59
2024/03/14 08:04:23;;;;;;;6.00;1.38;;;;;;;10.15;100.00;98971.22;5090147;28;20075;-58
2024/03/14 08:06:51;;;;;;;7.97;1.17;;;;;;;10.14;100.00;98975.16;5069000;28;20059;-59
2024/03/14 08:09:26;;;;;;;8.18;1.83;;;;;;;10.13;100.00;98973.59;5088875;28;20044;-58
2024/03/14 08:11:54;;;;;;;3.58;1.27;;;;;;;10.12;100.00;98974.75;5089196;28;20501;-58
2024/03/14 08:14:22;;;;;;;6.60;1.45;;;;;;;10.13;100.00;98979.13;5088228;28;20040;-60
2024/03/14 08:16:49;;;;;;;6.20;1.95;;;;;;;10.13;100.00;98959.78;5088820;28;20052;-57
2024/03/14 08:19:18;;;;;;;6.28;1.30;;;;;;;10.13;100.00;98965.31;5090954;28;20060;-58
2024/03/14 08:21:47;;;;;;;13.95;2.60;;;;;;;10.13;100.00;98957.00;5090238;28;20044;-58
2024/03/14 08:24:16;;;;;;;9.00;2.25;;;;;;;10.13;100.00;98962.53;5089683;28;20484;-59
2024/03/14 08:26:46;;;;;;;4.30;1.83;;;;;;;10.13;100.00;98962.53;5090466;28;20048;-59
2024/03/14 08:29:14;;;;;;;11.80;1.58;;;;;;;10.13;100.00;98970.03;5090630;28;20055;-57
2024/03/14 08:31:41;;;;;;;17.48;2.00;;;;;;;10.13;100.00;98976.38;5089923;28;20044;-58
2024/03/14 08:34:09;;;;;;;8.30;1.60;;;;;;;10.15;100.00;98973.19;5090729;28;20062;-58
2024/03/14 08:36:42;;;;;;;9.70;1.40;;;;;;;10.16;100.00;98964.53;5089125;28;20044;-59
2024/03/14 08:39:11;;;;;;;7.32;1.70;;;;;;;10.20;100.00;98965.34;5090860;28;20044;-59
2024/03/14 08:41:39;;;;;;;4.53;1.63;;;;;;;10.25;100.00;98969.69;5089949;28;20522;-59
2024/03/14 08:44:06;;;;;;;5.20;1.90;;;;;;;10.27;100.00;98968.13;5078924;28;20047;-56
2024/03/14 08:46:34;;;;;;;5.20;2.08;;;;;;;10.30;100.00;98972.91;5085958;28;20059;-56
2024/03/14 08:49:02;;;;;;;8.13;2.17;;;;;;;10.34;100.00;98957.13;5090342;28;20059;-56
2024/03/14 08:51:31;;;;;;;3.00;1.75;;;;;;;10.36;100.00;98959.50;5089933;28;20405;-56
2024/03/14 08:56:45;;;;;;;4.93;1.55;;;;;;;10.40;100.00;98950.03;5079876;28;20063;-55
2024/03/14 08:59:13;;;;;;;5.80;1.63;;;;;;;10.43;100.00;98951.25;5089746;28;20060;-57
2024/03/14 09:01:41;;;;;;;5.47;1.35;;;;;;;10.47;100.00;98954.81;5088379;28;20056;-58
2024/03/14 09:04:10;;;;;;;10.00;2.05;;;;;;;10.53;100.00;98949.72;5086902;28;20040;-56
2024/03/14 09:06:39;;;;;;;5.10;1.00;;;;;;;10.57;100.00;98950.50;5078746;28;20386;-57
2024/03/14 09:09:07;;;;;;;3.58;1.50;;;;;;;10.58;100.00;98943.81;5087218;28;20064;-58
2024/03/14 09:11:34;;;;;;;5.05;0.82;;;;;;;10.58;100.00;98941.84;5089500;28;20044;-58
2024/03/14 09:14:05;;;;;;;2.78;0.82;;;;;;;10.62;100.00;98939.06;5089567;28;20055;-59
2024/03/14 09:16:37;;;;;;;4.13;1.17;;;;;;;10.63;100.00;98930.38;5089979;28;20056;-59
2024/03/14 09:19:04;;;;;;;6.80;1.08;;;;;;;10.65;100.00;98935.53;5090237;28;20040;-59
2024/03/14 09:21:32;;;;;;;4.30;1.02;;;;;;;10.65;100.00;98932.75;5086841;28;20048;-59
2024/03/14 09:23:59;;;;;;;3.95;0.75;;;;;;;10.65;100.00;98938.28;5089434;28;20044;-59
2024/03/14 09:26:28;;;;;;;4.50;0.80;;;;;;;10.64;100.00;98929.22;5089394;28;20043;-60
2024/03/14 09:28:55;;;;;;;1.50;0.50;;;;;;;10.63;100.00;98935.13;5088819;28;20040;-59
2024/03/14 09:31:24;;;;;;;1.92;0.80;;;;;;;10.61;100.00;98931.97;5089445;28;20505;-60
2024/03/14 09:33:52;;;;;;;1.20;0.52;;;;;;;10.62;100.00;98931.56;5075542;28;20797;-59
2024/03/14 09:36:19;;;;;;;4.50;0.90;;;;;;;10.63;100.00;98913.00;5088913;28;20052;-60
2024/03/14 09:38:47;;;;;;;0.77;0.40;;;;;;;10.66;100.00;98921.31;5076697;28;20052;-59
2024/03/14 09:41:17;;;;;;;5.68;0.98;;;;;;;10.70;100.00;98918.53;5089355;28;20067;-59
2024/03/14 09:43:51;;;;;;;2.53;0.57;;;;;;;10.74;100.00;98917.38;5087445;28;20040;-60
2024/03/14 09:46:25;;;;;;;1.05;0.90;;;;;;;10.78;100.00;98914.63;5088684;28;20051;-59
2024/03/14 09:48:56;;;;;;;5.45;0.77;;;;;;;10.81;100.00;98919.38;5089256;28;20048;-59
2024/03/14 09:51:24;;;;;;;4.00;0.90;;;;;;;10.81;100.00;98920.16;5089153;28;20052;-59
2024/03/14 09:53:54;;;;;;;5.82;1.20;;;;;;;10.80;100.00;98926.09;5087719;28;20528;-59
2024/03/14 09:56:22;;;;;;;2.22;0.77;;;;;;;10.79;100.00;98922.53;5087249;28;20059;-60
2024/03/14 09:58:50;;;;;;;1.48;0.68;;;;;;;10.78;100.00;98922.91;5088852;28;20052;-59
2024/03/14 10:01:20;;;;;;;1.38;0.60;;;;;;;10.78;100.00;98920.16;5088711;28;20056;-59
2024/03/14 10:03:48;;;;;;;1.45;0.50;;;;;;;10.79;100.00;98921.75;5088891;28;20494;-60
2024/03/14 10:06:18;;;;;;;1.70;0.90;;;;;;;10.81;100.00;98919.38;5075301;28;20417;-59
2024/03/14 10:08:47;;;;;;;2.77;0.70;;;;;;;10.83;100.00;98912.25;5088241;28;20044;-59
2024/03/14 10:11:18;;;;;;;5.53;0.90;;;;;;;10.87;100.00;98915.84;5088350;28;20464;-58
2024/03/14 10:13:47;;;;;;;4.05;0.93;;;;;;;10.97;100.00;98900.44;5087327;28;20052;-60
2024/03/14 10:16:15;;;;;;;2.38;0.43;;;;;;;11.07;100.00;98890.56;5087064;28;20102;-59
2024/03/14 10:18:43;;;;;;;1.55;0.82;;;;;;;11.10;100.00;98890.56;5087654;28;21449;-59
2024/03/14 10:21:11;;;;;;;3.13;0.80;;;;;;;11.08;100.00;98890.16;5088715;28;20070;-60
2024/03/14 10:23:40;;;;;;;1.02;0.40;;;;;;;11.08;100.00;98879.09;5087680;28;20064;-60
2024/03/14 10:26:09;;;;;;;2.53;0.60;;;;;;;11.10;100.00;98882.25;5077414;28;20417;-60
2024/03/14 10:28:39;;;;;;;1.52;0.60;;;;;;;11.17;100.00;98871.19;5084572;28;20043;-60
2024/03/14 10:31:08;;;;;;;0.70;0.40;;;;;;;11.27;100.00;98869.63;5087907;28;20060;-58
2024/03/14 10:33:37;;;;;;;1.10;0.20;;;;;;;11.34;100.00;98869.59;5088044;28;20040;-60
2024/03/14 10:36:10;;;;;;;1.85;0.30;;;;;;;11.40;100.00;98866.06;5086960;28;20510;-59
2024/03/14 10:38:41;;;;;;;2.85;0.22;;;;;;;11.48;100.00;98861.31;5086565;28;20860;-59
2024/03/14 10:41:12;;;;;;;1.25;0.63;;;;;;;11.54;100.00;98860.50;5087771;28;20436;-59
2024/03/14 10:43:42;;;;;;;0.68;0.40;;;;;;;11.57;100.00;98862.47;5074849;28;20048;-59
2024/03/14 10:46:15;;;;;;;0.80;0.22;;;;;;;11.56;100.00;98860.91;5087135;28;20056;-59
2024/03/14 10:48:44;;;;;;;3.25;0.32;;;;;;;11.55;100.00;98869.59;5088323;28;20513;-59
2024/03/14 10:51:14;;;;;;;1.25;0.43;;;;;;;11.51;100.00;98864.09;5073126;28;21740;-59
2024/03/14 10:53:45;;;;;;;0.30;0.30;;;;;;;11.47;100.00;98860.50;5076571;28;20785;-59
2024/03/14 10:56:16;;;;;;;1.30;0.50;;;;;;;11.48;100.00;98850.22;5085601;28;20409;-59
2024/03/14 10:58:47;;;;;;;1.63;0.28;;;;;;;11.54;100.00;98845.88;5087897;28;20052;-60
2024/03/14 11:01:17;;;;;;;0.28;0.17;;;;;;;11.68;100.00;98833.94;5087813;28;20051;-60
2024/03/14 11:03:45;;;;;;;0.20;0.20;;;;;;;11.83;100.00;98830.00;5087510;28;20067;-59
2024/03/14 11:06:18;;;;;;;0.73;0.50;;;;;;;12.00;100.00;98826.38;5087039;28;20044;-60
2024/03/14 11:08:46;;;;;;;1.65;0.73;;;;;;;12.17;100.00;98829.09;5087667;28;20405;-60
2024/03/14 11:11:18;;;;;;;2.15;0.30;;;;;;;12.28;100.00;98823.50;5086120;28;20059;-60
2024/03/14 11:13:51;;;;;;;0.98;0.47;;;;;;;12.32;100.00;98813.19;5087345;28;20556;-60
2024/03/14 11:16:19;;;;;;;1.67;0.50;;;;;;;12.32;100.00;98817.94;5087299;28;20052;-60
2024/03/14 11:18:53;;;;;;;1.48;1.38;;;;;;;12.28;100.00;98823.50;5087560;28;20139;-60
2024/03/14 11:21:31;;;;;;;1.40;0.60;;;;;;;12.23;100.00;98832.25;5087424;28;20698;-60
2024/03/14 11:24:02;;;;;;;1.17;0.80;;;;;;;12.17;100.00;98833.84;5087581;28;20040;-60
2024/03/14 11:26:34;;;;;;;4.38;1.15;;;;;;;12.09;100.00;98832.31;5086174;28;20055;-60
2024/03/14 11:29:04;;;;;;;17.98;2.35;;;;;;;12.03;100.00;98822.81;5074407;28;20082;-60
2024/03/14 11:31:38;;;;;;;3.13;0.52;;;;;;;12.04;100.00;98816.06;5087182;28;20048;-60
2024/03/14 11:34:17;;;;;;;2.05;0.65;;;;;;;12.06;100.00;98810.91;5087739;28;20052;-60
2024/03/14 11:36:46;;;;;;;1.92;0.60;;;;;;;12.09;100.00;98804.56;5086094;28;20090;-60
2024/03/14 11:39:26;;;;;;;2.22;0.82;;;;;;;12.15;100.00;98802.97;5085992;28;20067;-60